• Join FlightAware (Why Join?)
  • Login
  • US Flag 
02:13AM EDT


 

Airport Tracker/Info


-or-


 

Live Flight TrackerFlight Track Log ✈ JA-801A ✈ 26-Jun-2013 ✈ RJFK / KOJ - RJTT / HND

Flight Track Log - Related Links

Times and Time Zones

All times are in EDT time to prevent confusion due to time zone crossing. See the JA-801A flight status page for this flight to view local times or setup timezone preferences in your user account.

Time Position Orientation Groundspeed Altitude Reporting Facility
EDT Latitude Longitude Course Direction KTS MPH feet Rate Location/Type
01:41AM 31.8220 130.7080 334° Northwest 161 185 2,500  Level FlightAware
01:42AM 31.8310 130.7040 339° North 167 192 3,200 3,180 Climbing FlightAware
01:42AM 31.8460 130.7060 North 188 216 4,100 3,000 Climbing FlightAware
01:42AM 31.8540 130.7160 47° Northeast 211 243 4,700 2,160 Climbing FlightAware
01:42AM 31.8570 130.7270 72° East 229 264 4,900 1,320 Climbing FlightAware
01:43AM 31.8360 130.7630 124° Southeast 266 306 5,700 1,800 Climbing FlightAware
01:43AM 31.8010 130.7870 150° Southeast 303 349 6,900 2,760 Climbing FlightAware
01:44AM 31.7730 130.8120 143° Southeast 314 361 8,300 3,300 Climbing FlightAware
01:44AM 31.7620 130.8280 129° Southeast 325 374 8,900 3,420 Climbing FlightAware
01:44AM 31.7520 130.8580 111° Southeast 335 386 9,900 2,040 Climbing FlightAware
01:45AM 31.7310 130.9320 108° East 381 438 10,900 1,500 Climbing FlightAware
01:46AM 31.7070 131.0210 108° East 424 488 12,000 2,220 Climbing FlightAware
01:46AM 31.6790 131.1200 108° East 433 498 14,200 2,580 Climbing FlightAware
01:47AM 31.6510 131.2160 109° East 444 511 15,800 2,340 Climbing FlightAware
01:48AM 31.6320 131.3090 103° East 451 519 17,500 2,340 Climbing FlightAware
01:49AM 31.6640 131.4080 69° East 457 526 19,000 2,220 Climbing FlightAware
01:49AM 31.7110 131.5070 61° Northeast 464 534 20,700 2,400 Climbing FlightAware
01:50AM 31.7520 131.5940 61° Northeast 463 533 22,400 2,520 Climbing FlightAware
01:51AM 31.7930 131.6810 61° Northeast 460 529 24,100 1,920 Climbing FlightAware
01:51AM 31.8350 131.7700 61° Northeast 467 537 25,000 600 Climbing FlightAware
01:52AM 31.8780 131.8640 62° Northeast 465 535 25,000  Level FlightAware
01:53AM 31.9220 131.9560 61° Northeast 467 537 25,000  Level FlightAware
01:53AM 31.9690 132.0580 61° Northeast 466 536 25,000  Level FlightAware
01:54AM 32.0150 132.1580 61° Northeast 468 539 25,000  Level FlightAware
01:55AM 32.0520 132.2370 61° Northeast 469 540 25,000  Level FlightAware
01:56AM 32.0990 132.3390 61° Northeast 469 540 25,000  Level FlightAware
01:56AM 32.1390 132.4280 62° Northeast 470 541 25,000  Level FlightAware
01:57AM 32.1800 132.5250 63° Northeast 470 541 25,000  Level FlightAware
01:58AM 32.2180 132.6160 64° Northeast 470 541 25,000  Level FlightAware
01:59AM 32.2640 132.7340 65° Northeast 470 541 25,000  Level FlightAware
01:59AM 32.3020 132.8240 63° Northeast 470 541 25,000  Level FlightAware
02:00AM 32.3300 132.8930 64° Northeast 470 541 25,000  Level FlightAware
02:01AM 32.3690 132.9870 64° Northeast 470 541 25,000  Level FlightAware
02:01AM 32.3980 133.0580 64° Northeast 470 541 25,000  Level FlightAware
02:04AM 32.5209 133.2977 59° Northeast  Level Estimated
02:04AM 32.5250 133.4890 59° Northeast 471 542 25,000  Level FlightAware
02:04AM 32.5530 133.5700 68° East 471 542 25,000  Level FlightAware
02:05AM 32.6050 133.7230 68° East 472 543 25,000  Level FlightAware
02:07AM 32.6340 133.8080 68° East 473 544 25,000  Level FlightAware
02:07AM 32.6950 133.9870 68° East 474 545 25,000  Level FlightAware
02:08AM 32.7340 134.1020 68° East 474 545 25,000  Level FlightAware
02:09AM 32.7750 134.2240 68° East 474 545 25,000  Level FlightAware
02:09AM 32.8120 134.3320 68° East 473 544 25,000  Level FlightAware
02:10AM 32.8490 134.4430 68° East 474 545 25,000  Level FlightAware
02:11AM 32.8790 134.5320 68° East 471 542 25,000  Level FlightAware
02:12AM 32.9090 134.6230 69° East 470 541 25,000  Level FlightAware
02:12AM 32.9470 134.7380 68° East 469 540 25,000  Level FlightAware
02:13AM 32.9910 134.8380 62° Northeast 458 527 25,000  Level FlightAware
02:14AM 33.0450 134.9160 50° Northeast 457 526 25,000  Level FlightAware
02:14AM 33.1010 134.9940 49° Northeast 454 522 25,000  Level FlightAware
02:15AM 33.1690 135.0680 42° Northeast 448 516 25,000  Level FlightAware
02:16AM 33.2360 135.1370 41° Northeast 448 516 25,000  Level FlightAware
02:17AM 33.3080 135.2090 40° Northeast 450 518 25,000  Level FlightAware
02:17AM 33.3710 135.2790 43° Northeast 462 532 25,000  Level FlightAware
02:18AM 33.4170 135.3670 58° Northeast 483 556 25,000  Level FlightAware
02:18AM 33.4330 135.4460 76° East 491 565 25,000  Level FlightAware
02:19AM 33.4330 135.5580 90° East 490 564 25,000  Level FlightAware
02:20AM 33.4320 135.6820 91° East 492 566 25,000  Level FlightAware
02:20AM 33.4320 135.7700 90° East 486 559 25,000  Level FlightAware
02:21AM 33.4330 135.9090 89° East 481 554 25,000  Level FlightAware
02:22AM 33.4310 136.0130 91° East 481 554 25,000  Level FlightAware
02:23AM 33.4290 136.1180 91° East 479 551 25,000  Level FlightAware
02:23AM 33.4280 136.2270 91° East 480 552 25,000  Level FlightAware
02:24AM 33.4350 136.3470 86° East 475 547 25,000  Level FlightAware
02:25AM 33.4490 136.4390 80° East 478 550 25,000  Level FlightAware
02:25AM 33.4720 136.5530 76° East 476 548 25,000  Level FlightAware
02:26AM 33.5110 136.6480 64° Northeast 469 540 25,000  Level FlightAware
02:27AM 33.5560 136.7520 63° Northeast 471 542 25,000  Level FlightAware
02:27AM 33.5960 136.8430 62° Northeast 473 544 25,000  Level FlightAware
02:28AM 33.6430 136.9510 62° Northeast 476 548 25,000  Level FlightAware
02:29AM 33.6830 137.0420 62° Northeast 473 544 25,000  Level FlightAware
02:30AM 33.7300 137.1490 62° Northeast 478 550 25,000  Level FlightAware
02:30AM 33.7720 137.2430 62° Northeast 480 552 25,000  Level FlightAware
02:31AM 33.8180 137.3460 62° Northeast 479 551 25,000  Level FlightAware
02:32AM 33.8590 137.4390 62° Northeast 482 555 25,000  Level FlightAware
02:32AM 33.9060 137.5480 63° Northeast 487 560 25,000  Level FlightAware
02:33AM 33.9450 137.6430 64° Northeast 483 556 25,000 -1,020 Level FlightAware
02:34AM 33.9860 137.7450 64° Northeast 471 542 23,600 -2,400 Descending FlightAware
02:35AM 34.0290 137.8520 64° Northeast 460 529 21,600 -1,920 Descending FlightAware
02:35AM 34.0670 137.9450 64° Northeast 459 528 21,000 -480 Descending FlightAware
02:36AM 34.1030 138.0360 64° Northeast 461 531 21,000  Level FlightAware
02:37AM 34.1370 138.1220 64° Northeast 451 519 21,000  Level FlightAware
02:37AM 34.1790 138.2290 65° Northeast 440 506 21,000  Level FlightAware
02:38AM 34.2140 138.3190 65° Northeast 438 504 21,000  Level FlightAware
02:39AM 34.2760 138.4770 65° Northeast 434 499 21,000  Level FlightAware
02:40AM 34.3140 138.5710 64° Northeast 429 494 21,000  Level FlightAware
02:41AM 34.3510 138.6610 64° Northeast 436 502 21,000  Level FlightAware
02:41AM 34.3860 138.7460 63° Northeast 431 496 21,000  Level FlightAware
02:42AM 34.4260 138.8500 65° Northeast 430 495 21,000  Level FlightAware
02:43AM 34.4620 138.9380 64° Northeast 428 493 21,000  Level FlightAware
02:43AM 34.4890 139.0230 69° East 431 496 21,000 -720 Level FlightAware
02:44AM 34.5130 139.1330 75° East 426 490 20,000 -1,320 Descending FlightAware
02:45AM 34.5330 139.2280 76° East 421 484 19,200 -1,200 Descending FlightAware
02:45AM 34.5530 139.3180 75° East 417 480 18,400 -900 Descending FlightAware
02:46AM 34.5760 139.4200 75° East 418 481 18,000 -900 Descending FlightAware
02:47AM 34.6190 139.5370 66° East 410 472 16,900 -1,440 Descending FlightAware
02:48AM 34.6550 139.6290 65° Northeast 404 465 15,700 -1,200 Descending FlightAware
02:48AM 34.6870 139.7100 64° Northeast 379 436 15,200 -1,440 Descending FlightAware
02:49AM 34.7160 139.7850 65° Northeast 370 426 13,800 -2,220 Descending FlightAware
02:50AM 34.7480 139.8660 64° Northeast 355 409 12,100 -2,400 Descending FlightAware
02:51AM 34.7740 139.9360 66° East 348 400 10,400 -2,820 Descending FlightAware
02:51AM 34.7940 139.9850 64° Northeast 349 402 9,000 -2,940 Descending FlightAware
02:51AM 34.8130 140.0350 65° Northeast 333 383 7,800 -1,440 Descending FlightAware
02:52AM 34.8300 140.0790 65° Northeast 286 329 7,700 -1,140 Descending FlightAware
02:52AM 34.8490 140.1240 63° Northeast 277 319 6,700 -1,740 Descending FlightAware
02:53AM 34.8790 140.1440 29° Northeast 274 315 6,100 -1,440 Descending FlightAware
02:53AM 34.9130 140.1570 17° North 275 316 5,400 -1,080 Descending FlightAware
02:54AM 34.9290 140.1620 14° North 278 320 5,400  Level FlightAware
02:54AM 34.9620 140.1570 353° North 273 314 5,400  Level FlightAware
02:55AM 34.9970 140.1360 334° Northwest 284 327 5,400  Level FlightAware
02:55AM 35.0310 140.1160 334° Northwest 285 328 5,400  Level FlightAware
02:56AM 35.0670 140.0950 334° Northwest 265 305 5,400  Level FlightAware
02:56AM 35.0940 140.0790 334° Northwest 252 290 5,400  Level FlightAware
02:56AM 35.1280 140.0590 334° Northwest 266 306 5,400  Level FlightAware
02:57AM 35.1530 140.0450 335° Northwest 252 290 5,400  Level FlightAware
02:57AM 35.1830 140.0270 334° Northwest 236 272 5,400  Level FlightAware
02:58AM 35.2130 140.0090 334° Northwest 238 274 5,400  Level FlightAware
02:58AM 35.2440 139.9910 335° Northwest 248 285 5,400  Level FlightAware
02:59AM 35.2600 139.9810 333° Northwest 238 274 5,400  Level FlightAware
02:59AM 35.2830 139.9660 332° Northwest 228 262 5,400  Level FlightAware
02:59AM 35.3020 139.9520 329° Northwest 222 255 5,400 -960 Level FlightAware
03:02AM 35.5282 139.7963 331° Northwest  Level Estimated
03:02AM 35.4210 139.8670 331° Northwest 188 216 2,900  Level FlightAware
03:02AM 35.4470 139.8490 331° Northwest 189 217 2,400 -1,020 Descending FlightAware
03:03AM 35.4670 139.8350 330° Northwest 185 213 1,900 -1,080 Descending FlightAware
03:03AM 35.4780 139.8270 329° Northwest 172 198 1,700 -900 Descending FlightAware
03:03AM 35.4940 139.8160 331° Northwest 154 177 1,300 -780 Descending FlightAware
03:04AM 35.5110 139.8040 330° Northwest 149 171 1,000 -720 Descending FlightAware
03:04AM 35.5310 139.7900 330° Northwest 149 171 600 -480 Descending FlightAware
03:05AM 35.5440 139.7790 325° Northwest 149 171 600  Level FlightAware
03:07AM 35.5523 139.7797 North  Level Estimated
03:07AM 35.5620 139.7800 122° Southeast 21 24  Level FlightAware
03:08AM 35.5523 139.7797 122° Southeast  Level Estimated
03:08AM 35.5620 139.7810 90° East 21 24  Level FlightAware
03:10AM 35.5523 139.7797 186° South  Level Estimated
03:10AM 35.5580 139.7880 186° South 22 25  Level FlightAware
03:10AM 35.5550 139.7900 152° Southeast 20 23  Level FlightAware